Ancona / Falconara Airport LIPY

Flugplatz Daten

Name: Ancona / Falconara Airport

Ident: LIPY

Lat: 43,61629868

Long: 13,36229992

Platzhöhe: 49 ft

IataCode: AOI

City: Ancona

Homepage: http://www.aeroportomarche.com/index.php?lang=english

Metar

2021/08/05 14:20
LIPY 051420Z AUTO 23013KT 9999 FEW085 32/09 Q1006

Taf

2021/08/05 12:21
TAF LIPY 051100Z 0512/0612 27012KT 9999 FEW040 SCT070
BECMG 0512/0514 09010KT
TEMPO 0513/0519 TSRA
BECMG 0516/0518 VRB05KT
BECMG 0519/0521 25011KT
BECMG 0608/0610 09012KT
Gewünschte Webcam nicht vorhanden? Dann fügen Sie eine hinzu. Sie wird dann so schnell wie möglich freigeschaltet
Url: Title: